Time;durP1;ratioP1;P1;durP2;ratioP2;P2;SDS_P1;SDS_P2;PMS_P1;PMS_P2;Temp;Humidity;BMP_temperature;BMP_pressure;BME280_temperature;BME280_humidity;BME280_pressure;Samples;Min_cycle;Max_cycle;Signal;HPM_P1;HPM_P2
2021/06/06 00:02:00;;;;;;;7.38;4.20;;;;;;;23.08;32.50;102385.34;5053417;28;20112;-92
2021/06/06 00:04:25;;;;;;;10.27;4.90;;;;;;;22.99;32.59;102381.94;5053848;28;20053;-91
2021/06/06 00:06:52;;;;;;;7.95;5.45;;;;;;;23.02;32.73;102380.41;5053386;28;20036;-90
2021/06/06 00:09:20;;;;;;;8.57;4.30;;;;;;;23.03;32.56;102382.81;5053131;28;20105;-77
2021/06/06 00:11:52;;;;;;;24.88;5.10;;;;;;;23.02;32.75;102385.97;5057142;28;20431;-79
2021/06/06 00:14:24;;;;;;;8.88;4.53;;;;;;;23.01;32.62;102390.75;5072815;28;20379;-76
2021/06/06 00:16:53;;;;;;;7.35;3.75;;;;;;;23.02;32.63;102391.53;5072959;28;20021;-77
2021/06/06 00:19:20;;;;;;;16.65;4.68;;;;;;;23.00;32.71;102386.34;5073377;28;20029;-77
2021/06/06 00:21:46;;;;;;;9.15;4.60;;;;;;;22.99;32.62;102390.28;5072933;28;20051;-85
2021/06/06 00:24:15;;;;;;;10.77;5.20;;;;;;;22.96;32.75;102391.81;5073362;28;20024;-77
2021/06/06 00:26:41;;;;;;;7.47;4.25;;;;;;;22.89;32.87;102388.81;5055555;28;20556;-77
2021/06/06 00:29:07;;;;;;;11.95;4.18;;;;;;;22.91;32.84;102386.50;5073170;28;20060;-91
2021/06/06 00:31:33;;;;;;;10.45;5.28;;;;;;;22.86;32.49;102383.97;5072894;28;20059;-91
2021/06/06 00:33:58;;;;;;;11.60;4.93;;;;;;;22.85;32.92;102389.88;5073654;28;20470;-77
2021/06/06 00:36:24;;;;;;;10.75;4.22;;;;;;;22.80;32.96;102388.16;5073107;28;20111;-77
2021/06/06 00:38:50;;;;;;;6.07;4.35;;;;;;;22.77;32.79;102391.66;5055400;28;20039;-77
2021/06/06 00:41:18;;;;;;;6.90;4.05;;;;;;;22.78;32.78;102389.69;5072045;28;20048;-78
2021/06/06 00:43:45;;;;;;;7.00;3.92;;;;;;;22.76;32.92;102392.84;5053348;28;20364;-91
2021/06/06 00:46:12;;;;;;;6.93;3.90;;;;;;;22.75;32.78;102393.16;5052944;28;20044;-90
2021/06/06 00:48:37;;;;;;;7.82;4.45;;;;;;;22.66;33.17;102391.34;5053086;28;20073;-91
2021/06/06 00:51:24;;;;;;;7.28;4.65;;;;;;;22.59;33.28;102396.72;5053109;28;20041;-90
2021/06/06 00:53:54;;;;;;;9.60;4.07;;;;;;;22.50;33.40;102390.50;5053266;28;20033;-80
2021/06/06 00:56:26;;;;;;;11.75;4.68;;;;;;;22.49;33.21;102390.88;5052787;28;20025;-89
2021/06/06 00:58:54;;;;;;;9.45;4.47;;;;;;;22.43;33.16;102393.09;5053040;28;20078;-90
2021/06/06 01:01:21;;;;;;;9.07;5.15;;;;;;;22.37;33.22;102400.91;5052947;28;20104;-76
2021/06/06 01:03:52;;;;;;;9.20;4.55;;;;;;;22.33;33.46;102399.97;5053207;28;20055;-77
2021/06/06 01:06:39;;;;;;;9.90;5.05;;;;;;;22.19;33.59;102399.56;5053180;28;20033;-77
2021/06/06 01:09:07;;;;;;;7.18;4.75;;;;;;;22.24;33.38;102399.31;5052501;28;20052;-90
2021/06/06 01:11:47;;;;;;;11.63;4.88;;;;;;;22.10;33.68;102398.88;5056239;28;20040;-90
2021/06/06 01:14:31;;;;;;;9.02;4.18;;;;;;;22.02;33.67;102405.38;5073164;28;20038;-86
2021/06/06 01:17:08;;;;;;;7.00;4.05;;;;;;;22.01;33.77;102404.56;5072791;28;20106;-80
2021/06/06 01:19:33;;;;;;;7.70;4.03;;;;;;;22.03;33.66;102393.88;5073013;28;20035;-90
2021/06/06 01:22:10;;;;;;;8.65;4.70;;;;;;;21.84;34.04;102396.50;5071458;28;20033;-89
2021/06/06 01:24:46;;;;;;;8.93;4.40;;;;;;;21.93;33.82;102407.47;5072855;28;20470;-77
2021/06/06 01:27:15;;;;;;;9.45;5.15;;;;;;;21.90;33.84;102403.41;5073724;28;20426;-90
2021/06/06 01:29:47;;;;;;;11.25;4.85;;;;;;;21.83;34.18;102403.19;5076480;28;20048;-77
2021/06/06 01:32:24;;;;;;;12.63;4.72;;;;;;;21.87;34.08;102407.72;5076497;28;20036;-92
2021/06/06 01:35:01;;;;;;;8.48;4.40;;;;;;;21.92;34.25;102411.44;5076176;28;20392;-77
2021/06/06 01:37:29;;;;;;;8.00;4.25;;;;;;;21.91;34.21;102415.34;5076415;28;20082;-92
2021/06/06 01:40:05;;;;;;;9.57;4.38;;;;;;;21.92;34.32;102415.03;5076254;28;20062;-90
2021/06/06 01:42:38;;;;;;;7.10;3.83;;;;;;;21.97;34.28;102417.53;5064990;28;20037;-90
2021/06/06 01:45:15;;;;;;;8.85;4.40;;;;;;;21.92;34.66;102420.59;5038412;28;20036;-77
2021/06/06 01:47:43;;;;;;;8.00;4.45;;;;;;;22.03;34.09;102418.13;5055929;28;20040;-87
2021/06/06 01:50:20;;;;;;;10.80;4.30;;;;;;;21.95;34.73;102419.88;5056164;28;20032;-90
2021/06/06 01:52:47;;;;;;;8.07;3.40;;;;;;;22.00;34.38;102419.66;5056066;28;20467;-90
2021/06/06 01:55:17;;;;;;;13.27;5.35;;;;;;;21.89;34.41;102413.72;5056157;28;20516;-77
2021/06/06 01:57:44;;;;;;;8.98;4.60;;;;;;;21.95;34.12;102419.06;5056110;28;20021;-91
2021/06/06 02:00:16;;;;;;;5.60;3.67;;;;;;;21.90;34.34;102420.09;5055739;28;20025;-77
2021/06/06 02:02:42;;;;;;;9.25;4.25;;;;;;;21.89;34.55;102410.13;5055777;28;20115;-90
2021/06/06 02:05:14;;;;;;;8.82;3.58;;;;;;;21.88;34.49;102414.09;5055858;28;20057;-77
2021/06/06 02:07:42;;;;;;;8.88;4.57;;;;;;;21.85;34.63;102417.59;5055825;28;20071;-77
2021/06/06 02:10:14;;;;;;;9.05;3.85;;;;;;;21.87;34.51;102415.25;5037937;28;20041;-77
2021/06/06 02:12:42;;;;;;;10.77;3.95;;;;;;;21.90;34.49;102411.75;5055641;28;20053;-83
2021/06/06 02:15:14;;;;;;;8.50;3.70;;;;;;;21.85;34.57;102412.03;5055396;28;20021;-84
2021/06/06 02:17:39;;;;;;;7.40;4.25;;;;;;;21.82;34.66;102410.72;5055646;28;20017;-89
2021/06/06 02:20:09;;;;;;;9.98;4.20;;;;;;;21.81;34.66;102411.06;5055350;28;20075;-82
2021/06/06 02:22:34;;;;;;;13.25;4.32;;;;;;;21.86;34.47;102408.88;5055428;28;20025;-90
2021/06/06 02:25:01;;;;;;;8.23;4.03;;;;;;;21.83;34.74;102415.13;5055398;28;20104;-90
2021/06/06 02:27:44;;;;;;;7.70;4.28;;;;;;;21.78;34.72;102415.38;5055236;28;20112;-88
2021/06/06 02:30:18;;;;;;;7.68;4.50;;;;;;;21.80;34.69;102413.06;5055272;28;20021;-90
2021/06/06 02:33:14;;;;;;;8.23;3.83;;;;;;;21.78;34.55;102418.16;5055242;28;20021;-91
2021/06/06 02:35:50;;;;;;;6.80;3.67;;;;;;;21.80;34.46;102415.84;5055153;28;20422;-77
2021/06/06 02:39:04;;;;;;;8.27;4.30;;;;;;;21.52;35.04;102415.72;5054852;28;20021;-77
2021/06/06 02:41:48;;;;;;;11.30;4.93;;;;;;;21.72;34.70;102418.75;5056919;28;20020;-91
2021/06/06 02:44:26;;;;;;;10.43;5.03;;;;;;;21.68;34.67;102426.16;5075110;28;20025;-90
2021/06/06 02:46:53;;;;;;;8.80;3.83;;;;;;;21.64;34.66;102412.16;5075055;28;20486;-89
2021/06/06 02:49:25;;;;;;;9.35;4.07;;;;;;;21.66;34.73;102415.38;5075161;28;20023;-90
2021/06/06 02:52:07;;;;;;;7.13;3.80;;;;;;;21.64;34.87;102416.91;5074884;28;20104;-89
2021/06/06 02:54:52;;;;;;;13.30;5.47;;;;;;;21.65;34.71;102426.84;5075070;28;20028;-90
2021/06/06 02:57:21;;;;;;;8.93;4.20;;;;;;;21.62;34.66;102419.22;5074980;28;20024;-77
2021/06/06 02:59:54;;;;;;;10.07;4.97;;;;;;;21.66;34.70;102417.34;5074644;28;20029;-80
2021/06/06 03:02:25;;;;;;;8.07;4.22;;;;;;;21.58;34.76;102419.91;5074519;28;20028;-90
2021/06/06 03:04:54;;;;;;;9.50;5.50;;;;;;;21.55;34.88;102417.81;5074646;28;20490;-77
2021/06/06 03:07:32;;;;;;;9.35;4.38;;;;;;;21.58;34.81;102410.75;5075094;28;20029;-77
2021/06/06 03:09:58;;;;;;;12.65;5.30;;;;;;;21.56;34.79;102410.28;5074684;28;20125;-91
2021/06/06 03:12:26;;;;;;;10.88;4.72;;;;;;;21.53;34.83;102409.00;5046320;28;20108;-77
2021/06/06 03:14:53;;;;;;;10.93;4.90;;;;;;;21.58;34.76;102413.53;5054358;28;20086;-76
2021/06/06 03:17:23;;;;;;;9.20;4.90;;;;;;;21.52;35.11;102412.94;5054382;28;20053;-77
2021/06/06 03:19:53;;;;;;;13.15;5.32;;;;;;;21.43;35.19;102412.25;5054381;28;20078;-77
2021/06/06 03:22:23;;;;;;;10.82;4.97;;;;;;;21.42;35.12;102418.97;5054680;28;20025;-89
2021/06/06 03:24:56;;;;;;;10.10;5.20;;;;;;;21.47;34.99;102415.16;5054116;28;20025;-90
2021/06/06 03:27:27;;;;;;;8.57;4.78;;;;;;;21.42;35.05;102418.16;5054333;28;20021;-90
2021/06/06 03:30:05;;;;;;;13.00;4.72;;;;;;;21.09;35.78;102412.66;5054162;28;20025;-76
2021/06/06 03:32:38;;;;;;;10.95;5.00;;;;;;;21.15;35.72;102412.06;5054373;28;20017;-90
2021/06/06 03:35:06;;;;;;;13.13;4.28;;;;;;;21.27;35.34;102419.63;5054195;28;20025;-90
2021/06/06 03:37:33;;;;;;;6.97;3.80;;;;;;;21.24;35.54;102421.13;5051735;28;20430;-89
2021/06/06 03:39:59;;;;;;;12.07;5.07;;;;;;;21.27;35.43;102422.41;5054145;28;20033;-89
2021/06/06 03:42:26;;;;;;;13.85;5.88;;;;;;;21.28;35.38;102426.81;5046599;28;20033;-91
2021/06/06 03:44:52;;;;;;;10.10;4.72;;;;;;;21.20;35.50;102425.75;5073876;28;20028;-90
2021/06/06 03:47:18;;;;;;;13.50;4.88;;;;;;;21.22;35.48;102425.41;5073816;28;20024;-80
2021/06/06 03:49:43;;;;;;;10.45;5.00;;;;;;;21.03;35.94;102425.94;5055613;28;20077;-85
2021/06/06 03:52:09;;;;;;;10.52;4.50;;;;;;;20.99;35.98;102431.38;5073641;28;20107;-79
2021/06/06 03:54:35;;;;;;;8.30;4.65;;;;;;;21.03;35.66;102429.53;5055608;28;20028;-90
2021/06/06 03:57:01;;;;;;;9.10;5.03;;;;;;;21.01;35.88;102434.63;5073158;28;20051;-85
2021/06/06 03:59:27;;;;;;;10.25;4.57;;;;;;;20.89;36.16;102439.34;5073736;28;20518;-77
2021/06/06 04:01:53;;;;;;;10.20;4.57;;;;;;;20.94;36.13;102445.50;5073488;28;20463;-79
2021/06/06 04:04:19;;;;;;;11.18;4.80;;;;;;;20.97;35.96;102439.25;5073746;28;20021;-76
2021/06/06 04:06:45;;;;;;;10.75;4.47;;;;;;;20.97;35.90;102444.00;5073780;28;20116;-90
2021/06/06 04:09:12;;;;;;;11.50;5.25;;;;;;;20.89;36.17;102448.47;5071288;28;20419;-77
2021/06/06 04:11:38;;;;;;;11.30;4.47;;;;;;;20.98;36.05;102445.59;5073629;28;20032;-86
2021/06/06 04:14:05;;;;;;;9.02;4.53;;;;;;;20.89;36.46;102448.47;5073595;28;20033;-77
2021/06/06 04:16:33;;;;;;;16.58;6.22;;;;;;;21.02;36.10;102449.34;5073404;28;20104;-91
2021/06/06 04:18:58;;;;;;;10.45;4.80;;;;;;;21.05;36.11;102454.19;5073675;28;20028;-90
2021/06/06 04:21:30;;;;;;;11.35;5.20;;;;;;;20.96;36.29;102453.47;5073273;28;20020;-90
2021/06/06 04:23:56;;;;;;;10.35;4.35;;;;;;;21.02;36.17;102455.72;5073279;28;20036;-91
2021/06/06 04:26:22;;;;;;;12.25;4.85;;;;;;;20.88;36.46;102448.81;5073083;28;20020;-79
2021/06/06 04:28:48;;;;;;;12.18;5.15;;;;;;;20.83;36.50;102458.19;5073330;28;20048;-90
2021/06/06 04:31:16;;;;;;;9.70;5.20;;;;;;;20.74;36.82;102463.00;5073126;28;20082;-90
2021/06/06 04:33:41;;;;;;;10.82;4.95;;;;;;;20.71;36.89;102461.72;5073142;28;20500;-90
2021/06/06 04:36:08;;;;;;;12.50;5.53;;;;;;;20.85;36.87;102463.38;5073292;28;20029;-80
2021/06/06 04:38:35;;;;;;;11.18;5.45;;;;;;;21.01;36.45;102470.75;5073390;28;20025;-76
2021/06/06 04:41:05;;;;;;;12.90;5.60;;;;;;;20.97;36.75;102463.44;5073177;28;20065;-90
2021/06/06 04:43:31;;;;;;;12.70;5.65;;;;;;;20.97;36.51;102466.22;5073703;28;20025;-77
2021/06/06 04:45:56;;;;;;;15.10;6.15;;;;;;;21.01;36.36;102464.38;5073114;28;20032;-87
2021/06/06 04:48:24;;;;;;;10.27;5.40;;;;;;;21.13;36.22;102467.19;5073397;28;20479;-77
2021/06/06 04:50:50;;;;;;;10.52;5.30;;;;;;;21.13;36.32;102452.47;5073143;28;20029;-77
2021/06/06 04:53:17;;;;;;;13.55;5.70;;;;;;;21.19;36.24;102465.81;5073295;28;20043;-88
2021/06/06 04:55:44;;;;;;;11.95;5.10;;;;;;;21.11;36.48;102471.47;5072981;28;20115;-76
2021/06/06 04:58:15;;;;;;;10.23;5.47;;;;;;;21.11;36.46;102477.03;5073228;28;20355;-76
2021/06/06 05:00:41;;;;;;;13.98;5.88;;;;;;;21.18;36.35;102478.09;5073578;28;20028;-77
2021/06/06 05:03:08;;;;;;;9.13;5.53;;;;;;;21.21;36.25;102476.59;5077090;28;20064;-85
2021/06/06 05:05:34;;;;;;;9.85;5.30;;;;;;;21.31;36.27;102477.00;5076938;28;20359;-77
2021/06/06 05:08:01;;;;;;;9.70;5.10;;;;;;;21.11;36.56;102474.25;5077144;28;20154;-82
2021/06/06 05:10:30;;;;;;;13.75;6.00;;;;;;;21.11;36.64;102479.81;5076714;28;20044;-79
2021/06/06 05:12:56;;;;;;;10.98;5.22;;;;;;;21.11;36.58;102477.03;5062001;28;20502;-90
2021/06/06 05:15:23;;;;;;;11.82;4.82;;;;;;;21.18;36.58;102474.50;5056742;28;20036;-91
2021/06/06 05:17:51;;;;;;;11.35;4.80;;;;;;;21.20;36.65;102478.56;5056741;28;20029;-77
2021/06/06 05:20:20;;;;;;;12.30;5.00;;;;;;;21.29;36.53;102472.94;5056722;28;20104;-89
2021/06/06 05:22:45;;;;;;;11.38;5.40;;;;;;;21.35;36.47;102466.00;5056579;28;20025;-77
2021/06/06 05:25:12;;;;;;;13.18;4.53;;;;;;;21.42;36.41;102471.00;5038800;28;20017;-90
2021/06/06 05:27:38;;;;;;;9.15;5.15;;;;;;;21.44;36.16;102469.47;5056619;28;20036;-88
2021/06/06 05:30:08;;;;;;;8.77;5.85;;;;;;;21.43;36.59;102465.09;5056296;28;20029;-90
2021/06/06 05:32:34;;;;;;;11.25;5.65;;;;;;;21.41;36.71;102466.59;5056452;28;20029;-90
2021/06/06 05:34:59;;;;;;;12.43;5.00;;;;;;;21.47;36.62;102473.56;5056441;28;20043;-88
2021/06/06 05:37:25;;;;;;;9.50;5.78;;;;;;;21.56;36.49;102465.91;5056703;28;20035;-90
2021/06/06 05:39:52;;;;;;;11.30;5.25;;;;;;;21.60;36.53;102464.84;5056548;28;20104;-90
2021/06/06 05:42:18;;;;;;;7.55;4.70;;;;;;;21.69;36.52;102466.72;5066002;28;20024;-89
2021/06/06 05:44:43;;;;;;;11.02;5.05;;;;;;;21.78;36.39;102468.25;5075994;28;20024;-77
2021/06/06 05:47:09;;;;;;;12.85;5.13;;;;;;;21.94;36.56;102473.09;5076193;28;20493;-77
2021/06/06 05:49:35;;;;;;;8.65;4.93;;;;;;;21.91;36.66;102482.13;5076059;28;20501;-77
2021/06/06 05:52:00;;;;;;;10.35;5.03;;;;;;;22.25;36.29;102475.31;5075938;28;20013;-90
2021/06/06 05:54:26;;;;;;;10.75;4.85;;;;;;;22.36;36.57;102482.81;5076137;28;20025;-77
2021/06/06 05:56:51;;;;;;;7.82;4.22;;;;;;;22.83;35.99;102485.00;5076008;28;20046;-81
2021/06/06 05:59:17;;;;;;;6.30;3.83;;;;;;;22.76;36.15;102492.34;5076082;28;20074;-81
2021/06/06 06:01:43;;;;;;;8.65;4.18;;;;;;;22.90;36.08;102484.41;5075627;28;20024;-89
2021/06/06 06:04:08;;;;;;;14.02;5.50;;;;;;;23.18;35.66;102487.16;5075958;28;20029;-90
2021/06/06 06:06:34;;;;;;;9.10;4.35;;;;;;;23.34;35.58;102495.56;5075879;28;20099;-88
2021/06/06 06:09:00;;;;;;;7.32;4.20;;;;;;;23.50;35.52;102488.84;5075438;28;20041;-85
2021/06/06 06:11:26;;;;;;;8.00;4.88;;;;;;;23.70;35.50;102489.75;5075670;28;20086;-77
2021/06/06 06:13:52;;;;;;;6.90;4.40;;;;;;;23.86;35.25;102486.13;5075118;28;20030;-90
2021/06/06 06:16:21;;;;;;;11.57;4.68;;;;;;;23.93;35.02;102491.88;5058350;28;20363;-77
2021/06/06 06:18:51;;;;;;;10.40;4.50;;;;;;;24.11;35.19;102481.97;5075655;28;20035;-83
2021/06/06 06:21:17;;;;;;;;;;;;;;;24.18;35.29;102484.09;5076259;28;20028;-83
2021/06/06 06:23:43;;;;;;;7.93;4.78;;;;;;;24.34;34.78;102482.13;5075754;28;19918;-77
2021/06/06 06:26:09;;;;;;;14.18;4.93;;;;;;;24.62;34.37;102493.06;5075881;28;20107;-90
2021/06/06 06:28:35;;;;;;;17.98;4.88;;;;;;;24.70;34.39;102486.44;5075754;28;20103;-79
2021/06/06 06:31:01;;;;;;;15.07;5.00;;;;;;;24.65;34.61;102494.34;5075326;28;20043;-78
2021/06/06 06:33:26;;;;;;;13.18;4.95;;;;;;;24.76;34.77;102487.78;5075577;28;20043;-91
2021/06/06 06:35:52;;;;;;;8.45;4.28;;;;;;;25.01;34.28;102495.84;5075413;28;20020;-91
2021/06/06 06:38:18;;;;;;;9.90;4.35;;;;;;;25.22;34.54;102479.50;5075117;28;20082;-78
2021/06/06 06:40:44;;;;;;;7.82;4.07;;;;;;;25.34;34.26;102493.31;5075309;28;20541;-91
2021/06/06 06:43:10;;;;;;;12.02;4.18;;;;;;;25.50;33.99;102493.19;5075096;28;20070;-77
2021/06/06 06:45:39;;;;;;;9.60;4.50;;;;;;;25.71;33.53;102492.75;5074192;28;20024;-79
2021/06/06 06:48:11;;;;;;;14.52;4.10;;;;;;;25.91;33.36;102494.28;5073451;28;20020;-77
2021/06/06 06:50:37;;;;;;;10.65;4.80;;;;;;;26.19;33.25;102487.50;5073496;28;20029;-78
2021/06/06 06:53:05;;;;;;;9.10;3.97;;;;;;;26.10;33.66;102487.00;5073534;28;20024;-77
2021/06/06 06:55:32;;;;;;;9.40;4.13;;;;;;;26.36;33.21;102486.94;5073363;28;20021;-77
2021/06/06 06:57:59;;;;;;;7.53;4.00;;;;;;;26.52;32.75;102487.59;5072685;28;20063;-78
2021/06/06 07:00:38;;;;;;;11.18;4.07;;;;;;;26.49;32.27;102485.56;5068500;28;20032;-77
2021/06/06 07:03:04;;;;;;;11.20;4.38;;;;;;;26.50;32.57;102487.16;5072660;28;20032;-76
2021/06/06 07:05:30;;;;;;;8.63;3.38;;;;;;;25.85;33.17;102489.41;5072202;28;20046;-77
2021/06/06 07:07:56;;;;;;;8.27;4.03;;;;;;;25.75;33.09;102488.03;5072691;28;20032;-77
2021/06/06 07:10:25;;;;;;;11.45;3.88;;;;;;;25.67;33.12;102489.09;5072659;28;20047;-77
2021/06/06 07:12:51;;;;;;;10.30;4.50;;;;;;;25.76;33.07;102494.44;5072797;28;20036;-77
2021/06/06 07:15:18;;;;;;;6.30;3.67;;;;;;;25.80;32.94;102487.75;5072815;28;20028;-77
2021/06/06 07:17:43;;;;;;;9.60;4.75;;;;;;;25.91;32.84;102494.28;5065114;28;20029;-77
2021/06/06 07:20:13;;;;;;;8.00;4.15;;;;;;;25.92;33.01;102497.91;5052599;28;20029;-77
2021/06/06 07:22:38;;;;;;;7.13;4.43;;;;;;;26.05;33.02;102495.72;5053542;28;20025;-88
2021/06/06 07:25:06;;;;;;;9.40;3.90;;;;;;;26.14;32.64;102505.44;5078002;28;20043;-81
2021/06/06 07:27:33;;;;;;;13.98;5.18;;;;;;;26.07;32.78;102504.53;5085382;28;20020;-96
2021/06/06 07:29:59;;;;;;;11.68;4.88;;;;;;;25.91;33.38;102499.91;5059204;28;20568;-93
2021/06/06 07:32:25;;;;;;;9.73;3.90;;;;;;;26.39;32.87;102502.25;5072057;28;20020;-91
2021/06/06 07:34:52;;;;;;;10.30;4.88;;;;;;;26.41;32.81;102500.66;5072289;28;20067;-93
2021/06/06 07:37:18;;;;;;;11.70;4.25;;;;;;;26.61;32.74;102504.16;5054845;28;20025;-94
2021/06/06 07:39:44;;;;;;;14.98;4.78;;;;;;;26.67;32.36;102504.59;5054914;28;20566;-91
2021/06/06 07:42:12;;;;;;;13.35;5.03;;;;;;;26.71;32.52;102497.06;5071982;28;20096;-91
2021/06/06 07:44:38;;;;;;;10.25;4.00;;;;;;;26.66;32.66;102495.38;5054437;28;20052;-94
2021/06/06 07:47:06;;;;;;;11.15;4.47;;;;;;;26.91;31.99;102501.31;5074163;28;20025;-96
2021/06/06 07:49:33;;;;;;;8.77;5.30;;;;;;;26.84;32.15;102504.03;5075757;28;20039;-92
2021/06/06 07:51:58;;;;;;;12.27;7.30;;;;;;;26.91;31.85;102501.31;5072729;28;20110;-88
2021/06/06 07:54:24;;;;;;;19.48;8.48;;;;;;;26.90;31.98;102501.66;5042855;28;20132;-80
2021/06/06 07:56:49;;;;;;;12.85;8.60;;;;;;;27.13;31.85;102501.56;5066792;28;20032;-82
2021/06/06 07:59:15;;;;;;;20.23;11.95;;;;;;;27.27;31.68;102513.72;5058441;28;20243;-83
2021/06/06 08:01:41;;;;;;;16.40;11.02;;;;;;;27.30;31.36;102514.97;5054220;28;20027;-87
2021/06/06 08:04:07;;;;;;;22.00;14.25;;;;;;;27.42;31.28;102511.88;5072919;28;20119;-81
2021/06/06 08:06:33;;;;;;;11.10;5.65;;;;;;;27.59;31.37;102507.63;5072061;28;20136;-93
2021/06/06 08:08:58;;;;;;;13.65;4.28;;;;;;;27.79;30.97;102500.59;5066003;28;20044;-80
2021/06/06 08:11:24;;;;;;;9.32;4.53;;;;;;;27.92;30.78;102495.47;5038953;28;20025;-83
2021/06/06 08:13:51;;;;;;;8.77;3.42;;;;;;;28.18;30.60;102500.84;5054877;28;20112;-80
2021/06/06 08:16:20;;;;;;;15.60;3.67;;;;;;;28.07;30.63;102507.63;5033284;28;20108;-80
2021/06/06 08:18:47;;;;;;;11.98;4.53;;;;;;;28.14;30.20;102505.66;5052516;28;20032;-94
2021/06/06 08:21:16;;;;;;;7.45;3.53;;;;;;;28.17;29.84;102501.25;5048366;28;20037;-85
2021/06/06 08:23:42;;;;;;;6.05;2.90;;;;;;;28.08;30.05;102501.59;5044483;28;20036;-87
2021/06/06 08:26:09;;;;;;;7.65;3.53;;;;;;;28.31;29.87;102506.19;5036316;28;20424;-78
2021/06/06 08:28:35;;;;;;;13.02;4.13;;;;;;;28.43;29.83;102503.06;5070247;28;20035;-86
2021/06/06 08:31:14;;;;;;;9.57;3.05;;;;;;;28.33;29.12;102498.16;5068965;28;20020;-77
2021/06/06 08:33:40;;;;;;;8.20;2.97;;;;;;;28.67;29.26;102493.09;5069662;28;20048;-77
2021/06/06 08:36:11;;;;;;;7.50;2.63;;;;;;;28.83;28.53;102492.75;5069608;28;20025;-78
2021/06/06 08:38:37;;;;;;;7.20;3.00;;;;;;;29.00;28.52;102489.22;5069983;28;20535;-82
2021/06/06 08:41:24;;;;;;;12.40;3.03;;;;;;;29.15;27.91;102488.03;5061057;28;20037;-77
2021/06/06 08:43:54;;;;;;;6.18;3.05;;;;;;;29.07;27.95;102480.78;5032388;28;20039;-92
2021/06/06 08:46:22;;;;;;;9.38;3.80;;;;;;;29.09;27.82;102477.56;5050549;28;20036;-91
2021/06/06 08:48:48;;;;;;;8.75;3.30;;;;;;;28.98;27.86;102486.81;5050358;28;20029;-76
2021/06/06 08:51:25;;;;;;;13.80;3.45;;;;;;;28.92;27.12;102481.97;5050296;28;20107;-78
2021/06/06 08:54:15;;;;;;;14.60;4.57;;;;;;;28.90;27.78;102479.56;5032243;28;20059;-78
2021/06/06 08:56:42;;;;;;;9.63;3.13;;;;;;;29.34;27.31;102480.44;5031888;28;20510;-76
2021/06/06 08:59:22;;;;;;;11.68;3.17;;;;;;;29.51;27.31;102480.47;5050391;28;20497;-91
2021/06/06 09:02:03;;;;;;;;;;;;;;;29.52;28.15;102482.06;5051519;28;20040;-86
2021/06/06 09:04:33;;;;;;;11.70;4.22;;;;;;;29.45;27.83;102481.22;5050881;28;19975;-77
2021/06/06 09:07:05;;;;;;;10.10;5.35;;;;;;;29.51;28.34;102485.28;5048670;28;20021;-85
2021/06/06 09:09:34;;;;;;;10.23;4.07;;;;;;;29.89;27.72;102475.22;5056911;28;20048;-77
2021/06/06 09:12:03;;;;;;;29.37;7.60;;;;;;;29.79;28.55;102479.66;5070373;28;20024;-77
2021/06/06 09:14:29;;;;;;;12.35;4.05;;;;;;;30.15;27.56;102468.31;5071052;28;20379;-80
2021/06/06 09:17:00;;;;;;;14.98;3.92;;;;;;;30.20;27.49;102470.72;5070671;28;20048;-78
2021/06/06 09:19:38;;;;;;;7.00;3.40;;;;;;;30.02;27.62;102464.31;5070852;28;20040;-82
2021/06/06 09:22:03;;;;;;;9.38;3.58;;;;;;;30.23;27.05;102469.09;5070725;28;20052;-84
2021/06/06 09:24:39;;;;;;;7.88;3.45;;;;;;;30.28;26.38;102474.34;5070829;28;20427;-80
2021/06/06 09:27:10;;;;;;;12.30;4.57;;;;;;;30.04;26.22;102470.34;5071447;28;20020;-77
2021/06/06 09:29:36;;;;;;;8.57;3.13;;;;;;;30.08;26.73;102471.16;5070002;28;20086;-89
2021/06/06 09:32:22;;;;;;;12.07;3.40;;;;;;;29.85;26.74;102471.56;5070018;28;20490;-79
2021/06/06 09:34:54;;;;;;;8.38;2.55;;;;;;;29.67;26.54;102488.50;5070692;28;20066;-83
2021/06/06 09:37:22;;;;;;;5.32;2.22;;;;;;;29.48;26.20;102478.44;5071609;28;20021;-89
2021/06/06 09:40:19;;;;;;;7.72;3.50;;;;;;;29.43;26.68;102472.41;5072478;28;20034;-78
2021/06/06 09:42:47;;;;;;;13.35;7.03;;;;;;;29.20;28.09;102476.41;5047422;28;20028;-76
2021/06/06 09:45:19;;;;;;;9.35;4.65;;;;;;;29.28;28.04;102472.38;5069470;28;20036;-77
2021/06/06 09:48:07;;;;;;;10.60;4.90;;;;;;;29.30;28.36;102478.41;5069854;28;20024;-77
2021/06/06 09:50:53;;;;;;;7.07;2.97;;;;;;;29.38;27.75;102475.59;5072953;28;20032;-77
2021/06/06 09:53:30;;;;;;;6.10;2.60;;;;;;;29.61;27.33;102476.03;5072807;28;20044;-77
2021/06/06 09:56:08;;;;;;;7.80;2.97;;;;;;;29.93;26.44;102475.22;5073053;28;20019;-77
2021/06/06 09:58:38;;;;;;;8.77;3.25;;;;;;;29.91;26.76;102474.78;5074534;28;20021;-77
2021/06/06 10:01:19;;;;;;;11.75;4.45;;;;;;;29.88;27.46;102469.97;5074557;28;20147;-77
2021/06/06 10:03:58;;;;;;;10.27;3.90;;;;;;;29.72;28.20;102467.59;5056814;28;20033;-77
2021/06/06 10:06:26;;;;;;;8.88;4.28;;;;;;;30.00;27.81;102473.19;5074592;28;20028;-77
2021/06/06 10:09:06;;;;;;;11.88;4.72;;;;;;;29.98;27.84;102466.34;5074664;28;20037;-81
2021/06/06 10:11:40;;;;;;;8.95;4.47;;;;;;;29.95;27.82;102469.97;5074607;28;20547;-77
2021/06/06 10:14:07;;;;;;;9.95;4.28;;;;;;;29.91;27.97;102464.31;5075006;28;20025;-77
2021/06/06 10:16:41;;;;;;;13.18;4.65;;;;;;;29.93;28.15;102466.75;5075164;28;20359;-78
2021/06/06 10:19:16;;;;;;;13.02;5.82;;;;;;;29.73;27.80;102461.53;5074948;28;20029;-77
2021/06/06 10:21:45;;;;;;;9.82;4.43;;;;;;;29.73;27.74;102464.38;5056466;28;20031;-77
2021/06/06 10:24:19;;;;;;;12.52;5.13;;;;;;;29.55;27.81;102470.03;5074435;28;20031;-77
2021/06/06 10:26:54;;;;;;;12.07;4.40;;;;;;;29.56;28.09;102466.00;5074364;28;20028;-77
2021/06/06 10:29:43;;;;;;;7.45;3.92;;;;;;;29.75;28.10;102459.13;5074621;28;20506;-78
2021/06/06 10:32:22;;;;;;;12.32;4.38;;;;;;;30.01;27.85;102457.09;5074681;28;20025;-78
2021/06/06 10:35:04;;;;;;;8.13;3.83;;;;;;;30.14;27.99;102461.09;5074582;28;20035;-77
2021/06/06 10:37:31;;;;;;;13.27;4.32;;;;;;;30.20;28.32;102461.47;5074287;28;20031;-77
2021/06/06 10:40:02;;;;;;;6.30;3.75;;;;;;;30.25;27.79;102461.06;5074259;28;20046;-78
2021/06/06 10:42:39;;;;;;;12.50;4.35;;;;;;;30.30;27.64;102463.44;5073905;28;20036;-78
2021/06/06 10:45:26;;;;;;;11.60;3.75;;;;;;;30.01;27.91;102459.91;5074257;28;20016;-77
2021/06/06 10:48:02;;;;;;;6.38;3.30;;;;;;;30.08;27.49;102465.53;5073990;28;20524;-77
2021/06/06 10:50:35;;;;;;;8.70;3.47;;;;;;;30.27;27.79;102467.09;5074271;28;20027;-79
2021/06/06 10:53:18;;;;;;;11.85;3.58;;;;;;;30.49;27.25;102470.63;5074010;28;20600;-78
2021/06/06 10:56:10;;;;;;;7.38;3.47;;;;;;;30.36;27.39;102456.97;5056227;28;20405;-77
2021/06/06 10:58:48;;;;;;;24.30;4.97;;;;;;;30.25;27.12;102470.31;5073611;28;20385;-77
2021/06/06 11:01:19;;;;;;;12.43;4.50;;;;;;;30.07;27.36;102475.16;5073841;28;20028;-78
2021/06/06 11:03:50;;;;;;;9.20;4.75;;;;;;;29.91;27.29;102469.97;5074178;28;20073;-77
2021/06/06 11:06:24;;;;;;;9.35;4.28;;;;;;;29.76;27.30;102465.56;5073892;28;20056;-77
2021/06/06 11:08:50;;;;;;;10.90;3.80;;;;;;;29.70;27.65;102461.53;5073171;28;20028;-77
2021/06/06 11:11:27;;;;;;;9.65;4.07;;;;;;;29.74;27.73;102457.53;5055993;28;20031;-77
2021/06/06 11:14:12;;;;;;;8.05;3.60;;;;;;;29.84;27.80;102467.16;5073584;28;20122;-77
2021/06/06 11:16:51;;;;;;;18.85;8.25;;;;;;;29.72;27.95;102470.41;5073745;28;20029;-77
2021/06/06 11:19:19;;;;;;;5.85;3.70;;;;;;;29.78;27.90;102461.16;5073444;28;20111;-88
2021/06/06 11:21:55;;;;;;;8.82;3.40;;;;;;;29.88;27.53;102459.50;5073529;28;20025;-76
2021/06/06 11:24:33;;;;;;;8.75;4.35;;;;;;;29.86;27.71;102463.97;5073393;28;20029;-77
2021/06/06 11:27:09;;;;;;;8.15;3.70;;;;;;;29.89;27.93;102466.75;5073495;28;20111;-77
2021/06/06 11:29:59;;;;;;;7.20;4.07;;;;;;;29.86;27.56;102470.41;5073608;28;20048;-77
2021/06/06 11:32:56;;;;;;;7.55;4.07;;;;;;;30.10;28.07;102472.38;5073575;28;20035;-77
2021/06/06 11:35:34;;;;;;;9.80;5.22;;;;;;;30.26;27.96;102474.75;5073464;28;20027;-77
2021/06/06 11:38:18;;;;;;;7.90;4.03;;;;;;;30.09;27.99;102469.97;5073201;28;20023;-77